Time;durP1;ratioP1;P1;durP2;ratioP2;P2;SDS_P1;SDS_P2;PMS_P1;PMS_P2;Temp;Humidity;BMP_temperature;BMP_pressure;BME280_temperature;BME280_humidity;BME280_pressure;Samples;Min_cycle;Max_cycle;Signal;HPM_P1;HPM_P2
2022/08/08 00:01:53;;;;;;;4.30;1.70;;;17.20;99.90;;;;;;5138979;27;20409;-71
2022/08/08 00:04:40;;;;;;;2.97;1.45;;;17.20;99.90;;;;;;5138932;27;20047;-71
2022/08/08 00:07:12;;;;;;;;;;;17.20;99.90;;;;;;5138390;27;20042;-71
2022/08/08 00:10:00;;;;;;;3.00;1.70;;;17.00;99.90;;;;;;5138592;27;20014;-71
2022/08/08 00:12:32;;;;;;;1.60;1.50;;;17.00;99.90;;;;;;5138994;27;20033;-71
2022/08/08 00:15:11;;;;;;;3.05;1.02;;;16.90;99.90;;;;;;5138817;27;20039;-71
2022/08/08 00:17:58;;;;;;;2.67;1.20;;;16.90;99.90;;;;;;5137875;27;20061;-72
2022/08/08 00:20:36;;;;;;;2.75;1.13;;;16.90;99.90;;;;;;5138984;27;20114;-71
2022/08/08 00:23:10;;;;;;;1.45;1.10;;;16.90;99.90;;;;;;5138597;27;20330;-71
2022/08/08 00:25:47;;;;;;;1.17;1.05;;;16.80;99.90;;;;;;5138186;27;20411;-72
2022/08/08 00:28:17;;;;;;;1.65;1.15;;;16.80;99.90;;;;;;5138864;27;20104;-71
2022/08/08 00:30:49;;;;;;;1.50;1.10;;;16.80;99.90;;;;;;5138637;27;20035;-71
2022/08/08 00:33:17;;;;;;;2.15;1.23;;;16.80;99.90;;;;;;5138501;27;20039;-71
2022/08/08 00:35:53;;;;;;;1.88;1.15;;;16.80;99.90;;;;;;5138584;27;20039;-71
2022/08/08 00:38:43;;;;;;;2.33;1.30;;;16.80;99.90;;;;;;5138314;27;20511;-72
2022/08/08 00:41:30;;;;;;;1.58;1.15;;;16.80;99.90;;;;;;5138597;27;20130;-71
2022/08/08 00:43:59;;;;;;;3.33;1.33;;;16.80;99.90;;;;;;5138189;27;20092;-71
2022/08/08 00:46:55;;;;;;;3.25;1.50;;;16.80;99.90;;;;;;5138048;27;20424;-71
2022/08/08 00:49:48;;;;;;;1.98;1.50;;;16.80;99.90;;;;;;5138139;27;20031;-71
2022/08/08 00:52:41;;;;;;;2.60;1.50;;;16.80;99.90;;;;;;5136373;27;20043;-71
2022/08/08 00:55:14;;;;;;;2.40;1.70;;;16.80;99.90;;;;;;5138096;27;20035;-71
2022/08/08 00:58:17;;;;;;;2.80;1.67;;;16.70;99.90;;;;;;5137927;27;20335;-72
2022/08/08 01:01:01;;;;;;;2.00;1.60;;;16.70;99.90;;;;;;5136750;27;20061;-72
2022/08/08 01:03:32;;;;;;;2.08;1.73;;;16.70;99.90;;;;;;5138222;27;20038;-71
2022/08/08 01:06:32;;;;;;;4.25;1.70;;;16.60;99.90;;;;;;5138009;27;20043;-71
2022/08/08 01:09:18;;;;;;;2.38;1.58;;;16.70;99.90;;;;;;5137675;27;20043;-71
2022/08/08 01:12:22;;;;;;;2.90;1.70;;;16.70;99.90;;;;;;5138002;27;20094;-71
2022/08/08 01:15:07;;;;;;;3.60;1.90;;;16.70;99.90;;;;;;5137075;27;20039;-72
2022/08/08 01:18:01;;;;;;;3.35;1.80;;;16.60;99.90;;;;;;5137757;27;20309;-71
2022/08/08 01:20:27;;;;;;;2.25;1.55;;;16.50;99.90;;;;;;5137417;27;20062;-71
2022/08/08 01:23:35;;;;;;;2.22;1.67;;;16.50;99.90;;;;;;5136430;27;20420;-72
2022/08/08 01:26:32;;;;;;;2.38;1.50;;;16.40;99.90;;;;;;5136542;27;20444;-72
2022/08/08 01:29:04;;;;;;;3.13;1.50;;;16.40;99.90;;;;;;5136455;27;20039;-71
2022/08/08 01:31:41;;;;;;;2.78;1.58;;;16.30;99.90;;;;;;5137745;27;20049;-71
2022/08/08 01:34:54;;;;;;;3.28;1.75;;;16.40;99.90;;;;;;5137426;28;20408;-72
2022/08/08 01:37:57;;;;;;;2.40;1.50;;;16.40;99.90;;;;;;5137528;27;20049;-71
2022/08/08 01:40:32;;;;;;;2.45;1.42;;;16.30;99.90;;;;;;5136982;28;20047;-71
2022/08/08 01:43:31;;;;;;;1.67;1.30;;;16.20;99.90;;;;;;5137624;27;20043;-72
2022/08/08 01:46:20;;;;;;;2.30;1.42;;;16.30;99.90;;;;;;5137309;28;20098;-71
2022/08/08 01:49:34;;;;;;;1.88;1.25;;;16.20;99.90;;;;;;5107122;27;20435;-71
2022/08/08 01:52:12;;;;;;;2.05;1.77;;;16.20;99.90;;;;;;5136429;28;20035;-72
2022/08/08 01:55:16;;;;;;;4.65;1.77;;;16.20;99.90;;;;;;5136351;27;20088;-71
2022/08/08 01:58:17;;;;;;;3.58;2.08;;;16.20;99.90;;;;;;5137445;28;20057;-72
2022/08/08 02:01:04;;;;;;;3.67;2.35;;;16.20;99.90;;;;;;5137493;28;20043;-71
2022/08/08 02:03:45;;;;;;;2.72;2.22;;;16.20;99.90;;;;;;5139187;27;20035;-72
2022/08/08 02:06:29;;;;;;;7.07;2.80;;;16.30;99.90;;;;;;5140240;27;20047;-72
2022/08/08 02:09:10;;;;;;;4.03;2.88;;;16.20;99.90;;;;;;5141114;27;20039;-72
2022/08/08 02:11:40;;;;;;;5.03;2.95;;;16.30;99.90;;;;;;5141157;27;20554;-71
2022/08/08 02:14:52;;;;;;;4.35;2.75;;;16.20;99.90;;;;;;5141472;27;20110;-71
2022/08/08 02:17:50;;;;;;;4.78;2.92;;;16.20;99.90;;;;;;5119058;27;20047;-71
2022/08/08 02:23:46;;;;;;;3.95;2.60;;;16.20;99.90;;;;;;5140835;27;20446;-72
2022/08/08 02:26:23;;;;;;;3.45;2.47;;;16.20;99.90;;;;;;5140984;27;20042;-71
2022/08/08 02:29:19;;;;;;;4.15;2.78;;;16.10;99.90;;;;;;5140910;27;20047;-72
2022/08/08 02:31:50;;;;;;;5.70;2.95;;;16.10;99.90;;;;;;5141094;27;20080;-71
2022/08/08 02:34:44;;;;;;;5.32;2.80;;;16.10;99.90;;;;;;5140888;27;20041;-71
2022/08/08 02:37:34;;;;;;;6.13;2.60;;;16.00;99.90;;;;;;5140792;27;20035;-71
2022/08/08 02:40:36;;;;;;;5.82;2.90;;;16.00;99.90;;;;;;5140557;27;20034;-71
2022/08/08 02:43:39;;;;;;;3.65;2.22;;;16.10;99.90;;;;;;5140694;27;20035;-71
2022/08/08 02:46:19;;;;;;;2.05;1.77;;;16.10;99.90;;;;;;5140667;27;20039;-73
2022/08/08 02:49:13;;;;;;;4.68;2.15;;;16.00;99.90;;;;;;5140885;27;20108;-71
2022/08/08 02:52:11;;;;;;;2.97;2.00;;;16.10;99.90;;;;;;5140295;27;20035;-72
2022/08/08 02:54:57;;;;;;;3.28;1.80;;;16.10;99.90;;;;;;5094807;27;20131;-71
2022/08/08 02:57:38;;;;;;;3.85;2.20;;;16.10;99.90;;;;;;5140698;27;20312;-71
2022/08/08 03:00:35;;;;;;;3.13;1.52;;;16.00;99.90;;;;;;5140301;27;20050;-72
2022/08/08 03:03:30;;;;;;;4.88;2.22;;;16.20;99.90;;;;;;5140535;27;20130;-72
2022/08/08 03:06:27;;;;;;;3.10;2.13;;;16.20;99.90;;;;;;5116083;27;20385;-71
2022/08/08 03:09:15;;;;;;;3.83;2.30;;;16.20;99.90;;;;;;5139802;27;20074;-72
2022/08/08 03:11:59;;;;;;;5.10;3.00;;;16.20;99.90;;;;;;5140166;27;20085;-71
2022/08/08 03:14:55;;;;;;;7.28;3.53;;;16.20;99.90;;;;;;5139318;27;20047;-72
2022/08/08 03:17:47;;;;;;;6.93;3.45;;;16.30;99.90;;;;;;5140132;27;20395;-72
2022/08/08 03:20:14;;;;;;;7.57;3.88;;;16.40;99.90;;;;;;5140229;27;20050;-72
2022/08/08 03:22:57;;;;;;;4.70;3.28;;;16.50;99.90;;;;;;5139808;27;20050;-71
2022/08/08 03:25:27;;;;;;;5.07;3.03;;;16.50;99.90;;;;;;5140127;27;20071;-71
2022/08/08 03:28:01;;;;;;;4.05;3.17;;;16.50;99.90;;;;;;5138619;27;20039;-71
2022/08/08 03:30:27;;;;;;;6.82;3.38;;;16.50;99.90;;;;;;5139801;27;20511;-72
2022/08/08 03:35:40;;;;;;;6.72;3.75;;;16.50;99.90;;;;;;5139730;27;20051;-72
2022/08/08 03:38:06;;;;;;;5.13;3.63;;;16.60;99.90;;;;;;5140088;27;20042;-71
2022/08/08 03:40:32;;;;;;;6.68;3.97;;;16.60;99.90;;;;;;5138223;27;20095;-71
2022/08/08 03:42:58;;;;;;;5.35;3.65;;;16.60;99.90;;;;;;5139804;27;20035;-72
2022/08/08 03:45:27;;;;;;;5.65;3.80;;;16.60;99.90;;;;;;5139384;27;20031;-72
2022/08/08 03:48:07;;;;;;;5.93;4.05;;;16.60;99.90;;;;;;5138989;27;20050;-72
2022/08/08 03:50:39;;;;;;;8.15;4.00;;;16.70;99.90;;;;;;5139355;27;20031;-71
2022/08/08 03:53:10;;;;;;;6.22;3.72;;;16.80;99.90;;;;;;5138322;27;20071;-71
2022/08/08 03:55:42;;;;;;;5.13;3.70;;;16.80;99.90;;;;;;5138209;27;20033;-71
2022/08/08 03:58:09;;;;;;;7.65;3.90;;;16.90;99.90;;;;;;5139040;27;20554;-72
2022/08/08 04:00:35;;;;;;;5.28;3.75;;;16.90;99.90;;;;;;5139340;27;20043;-71
2022/08/08 04:03:04;;;;;;;4.35;3.30;;;16.90;99.90;;;;;;5138070;27;20423;-71
2022/08/08 04:05:35;;;;;;;4.57;3.25;;;16.90;99.90;;;;;;5139470;27;20039;-71
2022/08/08 04:08:03;;;;;;;7.32;3.63;;;16.80;99.90;;;;;;5138220;27;20070;-71
2022/08/08 04:10:30;;;;;;;6.18;3.78;;;16.80;99.90;;;;;;5138542;27;20031;-71
2022/08/08 04:12:56;;;;;;;7.57;3.10;;;16.80;99.90;;;;;;5138784;27;20039;-72
2022/08/08 04:15:22;;;;;;;5.88;4.10;;;16.80;99.90;;;;;;5138625;27;20416;-72
2022/08/08 04:17:48;;;;;;;8.00;4.15;;;16.80;99.90;;;;;;5139392;27;20153;-71
2022/08/08 04:20:14;;;;;;;5.38;3.60;;;16.70;99.90;;;;;;5138742;27;20043;-71
2022/08/08 04:22:40;;;;;;;3.97;3.10;;;16.80;99.90;;;;;;5138882;27;20046;-72
2022/08/08 04:25:07;;;;;;;6.95;3.42;;;16.80;99.90;;;;;;5138710;27;20035;-71
2022/08/08 04:27:34;;;;;;;6.38;3.58;;;16.80;99.90;;;;;;5137228;27;20051;-72
2022/08/08 04:30:01;;;;;;;5.72;4.00;;;16.70;99.90;;;;;;5137613;27;20051;-71
2022/08/08 04:32:26;;;;;;;5.68;3.70;;;16.80;99.90;;;;;;5138540;27;20039;-71
2022/08/08 04:34:52;;;;;;;5.43;3.95;;;16.80;99.90;;;;;;5138728;27;20531;-71
2022/08/08 04:37:18;;;;;;;9.07;4.30;;;16.80;99.90;;;;;;5137396;27;20047;-71
2022/08/08 04:39:43;;;;;;;6.93;3.80;;;16.80;99.90;;;;;;5137192;27;20057;-71
2022/08/08 04:42:09;;;;;;;7.00;4.10;;;16.90;99.90;;;;;;5120131;27;20479;-71
2022/08/08 04:44:35;;;;;;;8.43;4.13;;;16.90;99.90;;;;;;5138484;27;20046;-71
2022/08/08 04:47:01;;;;;;;6.45;3.88;;;16.90;99.90;;;;;;5138403;27;20309;-71
2022/08/08 04:49:26;;;;;;;8.27;4.63;;;16.90;99.90;;;;;;5138175;27;20071;-71
2022/08/08 04:51:52;;;;;;;8.00;3.97;;;16.90;99.90;;;;;;5138370;27;20043;-71
2022/08/08 04:54:18;;;;;;;6.53;3.83;;;16.90;99.90;;;;;;5138037;27;20031;-71
2022/08/08 04:56:43;;;;;;;6.68;4.22;;;16.90;99.90;;;;;;5138223;27;20039;-72
2022/08/08 04:59:09;;;;;;;8.48;4.20;;;16.90;99.90;;;;;;5137889;27;20046;-72
2022/08/08 05:01:35;;;;;;;5.93;4.22;;;17.00;99.90;;;;;;5137055;27;20065;-72
2022/08/08 05:04:00;;;;;;;8.05;4.00;;;16.90;99.90;;;;;;5137178;27;20042;-73
2022/08/08 05:06:26;;;;;;;7.30;3.83;;;17.00;99.90;;;;;;5137997;27;20054;-71
2022/08/08 05:08:52;;;;;;;7.30;4.60;;;17.00;99.90;;;;;;5137838;27;20050;-71
2022/08/08 05:11:19;;;;;;;6.00;4.10;;;17.00;99.90;;;;;;5137555;27;20035;-72
2022/08/08 05:13:44;;;;;;;9.45;5.30;;;17.00;99.90;;;;;;5137863;27;20050;-71
2022/08/08 05:16:10;;;;;;;8.02;4.18;;;17.00;99.90;;;;;;5137858;27;20038;-71
2022/08/08 05:18:36;;;;;;;6.55;3.75;;;17.00;99.90;;;;;;5138010;27;20039;-71
2022/08/08 05:21:03;;;;;;;5.53;3.75;;;17.10;99.90;;;;;;5136667;27;20035;-72
2022/08/08 05:23:29;;;;;;;6.28;4.15;;;17.00;99.90;;;;;;5137799;27;20377;-72
2022/08/08 05:25:56;;;;;;;5.40;4.05;;;17.10;99.90;;;;;;5136290;27;20039;-72
2022/08/08 05:28:21;;;;;;;5.70;4.07;;;17.10;99.90;;;;;;5137486;27;20385;-71
2022/08/08 05:30:48;;;;;;;10.93;4.53;;;17.20;99.90;;;;;;5136741;27;20062;-71
2022/08/08 05:33:14;;;;;;;7.45;4.20;;;17.30;99.90;;;;;;5119632;28;20058;-71
2022/08/08 05:35:44;;;;;;;10.15;3.90;;;17.30;99.90;;;;;;5136808;27;20402;-71
2022/08/08 05:38:16;;;;;;;7.35;4.55;;;17.50;99.90;;;;;;5136341;27;20039;-71
2022/08/08 05:40:48;;;;;;;7.50;3.72;;;17.50;99.90;;;;;;5137265;27;20324;-72
2022/08/08 05:43:26;;;;;;;9.60;4.38;;;17.60;99.90;;;;;;5137814;27;20080;-72
2022/08/08 05:46:00;;;;;;;10.23;4.65;;;17.80;99.90;;;;;;5137372;27;20047;-71
2022/08/08 05:48:26;;;;;;;7.68;4.30;;;17.90;99.90;;;;;;5137339;27;20419;-71
2022/08/08 05:50:52;;;;;;;9.80;4.90;;;18.00;99.90;;;;;;5137350;27;20088;-72
2022/08/08 05:53:24;;;;;;;7.55;4.25;;;18.10;99.90;;;;;;5137597;27;20031;-72
2022/08/08 05:55:55;;;;;;;9.68;4.25;;;18.20;99.90;;;;;;5137262;27;20046;-72
2022/08/08 05:58:27;;;;;;;7.18;4.50;;;18.30;99.90;;;;;;5137276;27;20087;-71
2022/08/08 06:00:55;;;;;;;8.63;4.55;;;18.40;99.90;;;;;;5137244;27;20480;-71
2022/08/08 06:03:22;;;;;;;6.55;4.53;;;18.40;99.90;;;;;;5137427;27;20036;-73
2022/08/08 06:06:06;;;;;;;9.20;4.53;;;18.50;99.90;;;;;;5136062;28;20054;-71
2022/08/08 06:08:37;;;;;;;7.45;4.28;;;18.60;99.90;;;;;;5137176;27;20424;-72
2022/08/08 06:11:04;;;;;;;7.20;4.10;;;18.80;99.90;;;;;;5136852;27;20032;-72
2022/08/08 06:13:30;;;;;;;15.55;4.57;;;18.80;99.90;;;;;;5118986;28;20042;-71
2022/08/08 06:15:56;;;;;;;12.65;4.65;;;18.90;99.90;;;;;;5136972;27;20032;-72
2022/08/08 06:18:24;;;;;;;7.32;4.38;;;18.90;99.90;;;;;;5137129;27;20331;-72
2022/08/08 06:20:55;;;;;;;10.68;4.75;;;18.90;99.90;;;;;;5136270;28;20039;-72
2022/08/08 06:23:22;;;;;;;8.73;4.65;;;19.00;99.90;;;;;;5137301;27;20066;-72
2022/08/08 06:26:02;;;;;;;13.55;5.30;;;19.10;99.90;;;;;;5135980;28;20050;-72
2022/08/08 06:28:42;;;;;;;9.20;4.65;;;19.20;99.90;;;;;;5137111;27;20043;-72
2022/08/08 06:31:11;;;;;;;15.98;5.50;;;18.90;99.90;;;;;;5137290;27;20366;-72
2022/08/08 06:33:49;;;;;;;10.70;4.80;;;18.90;99.90;;;;;;5137086;27;20041;-72
2022/08/08 06:36:23;;;;;;;8.85;4.60;;;18.80;99.90;;;;;;5137269;27;20039;-71
2022/08/08 06:38:51;;;;;;;11.10;4.57;;;18.90;99.90;;;;;;5170495;27;20082;-75
2022/08/08 06:41:18;;;;;;;15.68;5.00;;;19.00;99.90;;;;;;5136798;27;20096;-71
2022/08/08 06:43:46;;;;;;;9.07;3.85;;;19.00;99.90;;;;;;5136728;27;20047;-71
2022/08/08 06:46:13;;;;;;;7.25;3.35;;;18.80;99.90;;;;;;5135989;28;20035;-72
2022/08/08 06:48:38;;;;;;;12.63;3.72;;;18.80;99.90;;;;;;5136226;28;20100;-71
2022/08/08 06:51:04;;;;;;;6.80;3.45;;;18.90;99.90;;;;;;5138560;27;20383;-71
2022/08/08 06:53:31;;;;;;;14.10;3.83;;;18.90;99.90;;;;;;5140621;27;20319;-72
2022/08/08 06:55:58;;;;;;;10.13;4.22;;;19.00;99.90;;;;;;5140382;27;20043;-71
2022/08/08 06:58:24;;;;;;;10.77;3.95;;;19.00;99.90;;;;;;5140384;27;20070;-72
2022/08/08 07:00:50;;;;;;;9.43;4.43;;;18.90;99.90;;;;;;5140302;27;20073;-72
2022/08/08 07:03:55;;;;;;;13.93;4.40;;;18.80;99.90;;;;;;5139390;27;20381;-72
2022/08/08 07:06:26;;;;;;;11.93;3.90;;;18.90;99.90;;;;;;5132843;27;20051;-72
2022/08/08 07:08:57;;;;;;;9.75;3.90;;;19.10;99.90;;;;;;5140282;27;20340;-70
2022/08/08 07:11:28;;;;;;;8.15;4.65;;;19.20;99.90;;;;;;5139027;27;20313;-69
2022/08/08 07:13:59;;;;;;;8.30;3.80;;;19.20;99.90;;;;;;5139287;27;20038;-70
2022/08/08 07:16:38;;;;;;;10.88;4.57;;;19.30;99.90;;;;;;5138834;27;20046;-69
2022/08/08 07:19:16;;;;;;;6.28;3.28;;;19.50;99.90;;;;;;5140299;27;20039;-70
2022/08/08 07:22:01;;;;;;;6.70;2.58;;;19.80;99.90;;;;;;5138898;27;20432;-70
2022/08/08 07:25:00;;;;;;;5.97;2.97;;;20.00;99.90;;;;;;5140176;27;20038;-69
2022/08/08 07:27:31;;;;;;;5.70;2.50;;;20.20;99.90;;;;;;5127899;27;20043;-69
2022/08/08 07:29:57;;;;;;;10.18;2.63;;;20.30;99.90;;;;;;5139704;27;20077;-69
2022/08/08 07:32:24;;;;;;;6.57;2.70;;;20.50;99.90;;;;;;5139828;27;20032;-70
2022/08/08 07:34:50;;;;;;;8.13;2.22;;;20.50;99.90;;;;;;5138562;27;20035;-67
2022/08/08 07:37:17;;;;;;;7.45;2.80;;;20.60;99.90;;;;;;5139681;27;20164;-68
2022/08/08 07:39:43;;;;;;;8.55;2.20;;;20.60;99.90;;;;;;5139056;27;20394;-67
2022/08/08 07:42:14;;;;;;;4.47;2.00;;;20.80;99.90;;;;;;5139704;27;20061;-67
2022/08/08 07:44:46;;;;;;;8.60;2.10;;;20.90;99.90;;;;;;5138605;27;20035;-67
2022/08/08 07:47:11;;;;;;;9.32;2.17;;;20.90;99.90;;;;;;5139519;27;20047;-67
2022/08/08 07:49:41;;;;;;;5.60;2.35;;;20.90;99.90;;;;;;5139578;27;20123;-67
2022/08/08 07:52:13;;;;;;;6.90;2.28;;;20.90;99.90;;;;;;5139371;27;20407;-70
2022/08/08 07:54:51;;;;;;;12.32;2.15;;;20.90;99.90;;;;;;5139573;27;20039;-67
2022/08/08 07:57:35;;;;;;;7.28;2.03;;;21.00;99.90;;;;;;5139546;27;20066;-67
2022/08/08 08:00:14;;;;;;;7.57;2.20;;;21.10;99.90;;;;;;5139329;27;20324;-67
2022/08/08 08:02:45;;;;;;;7.82;2.28;;;21.10;99.90;;;;;;5138915;27;20040;-67
2022/08/08 08:05:23;;;;;;;8.20;1.90;;;21.20;99.90;;;;;;5138078;27;20031;-67
2022/08/08 08:08:03;;;;;;;6.78;1.80;;;21.40;99.90;;;;;;5139288;27;20050;-67
2022/08/08 08:10:30;;;;;;;5.35;1.88;;;21.50;99.90;;;;;;5138557;27;20042;-67
2022/08/08 08:13:20;;;;;;;8.50;1.90;;;21.30;99.90;;;;;;5120868;27;20051;-67
2022/08/08 08:16:02;;;;;;;5.47;1.33;;;21.40;99.90;;;;;;5138952;27;20039;-67
2022/08/08 08:18:55;;;;;;;3.65;1.20;;;21.70;99.90;;;;;;5138932;27;20070;-77
2022/08/08 08:21:21;;;;;;;2.35;0.75;;;22.00;99.90;;;;;;5138688;27;20039;-67
2022/08/08 08:23:47;;;;;;;4.80;1.20;;;22.20;99.90;;;;;;5138799;27;20035;-67
2022/08/08 08:26:13;;;;;;;3.33;1.05;;;22.20;99.90;;;;;;5138447;27;20055;-67
2022/08/08 08:28:39;;;;;;;4.18;0.88;;;22.40;99.90;;;;;;5138178;27;20084;-67
2022/08/08 08:31:06;;;;;;;2.53;0.70;;;22.70;99.90;;;;;;5120484;27;20449;-67
2022/08/08 08:33:32;;;;;;;1.60;0.88;;;22.70;99.90;;;;;;5138569;27;20031;-67
2022/08/08 08:35:59;;;;;;;3.22;1.00;;;22.70;99.90;;;;;;5137568;27;20309;-67
2022/08/08 08:38:25;;;;;;;6.50;1.05;;;22.80;99.90;;;;;;5138401;27;20328;-67
2022/08/08 08:40:51;;;;;;;5.32;0.82;;;22.80;99.90;;;;;;5137894;27;20035;-67
2022/08/08 08:43:18;;;;;;;3.58;1.00;;;23.00;99.90;;;;;;5138462;27;20039;-67
2022/08/08 08:45:46;;;;;;;2.88;0.70;;;23.20;99.90;;;;;;5138253;27;20087;-67
2022/08/08 08:48:16;;;;;;;4.95;0.95;;;23.20;99.50;;;;;;5138232;27;20039;-67
2022/08/08 08:50:43;;;;;;;2.83;0.80;;;23.20;99.60;;;;;;5138271;27;20035;-67
2022/08/08 08:53:10;;;;;;;3.72;0.75;;;23.10;99.40;;;;;;5138426;27;20058;-67
2022/08/08 08:55:38;;;;;;;3.47;0.70;;;23.10;99.60;;;;;;5138215;27;20062;-67
2022/08/08 08:58:08;;;;;;;4.93;1.00;;;23.30;99.30;;;;;;5138338;27;20049;-67
2022/08/08 09:00:36;;;;;;;4.20;0.80;;;23.10;99.30;;;;;;5138018;27;20158;-67
2022/08/08 09:03:07;;;;;;;5.03;0.77;;;23.10;99.50;;;;;;5137891;27;20054;-67
2022/08/08 09:05:39;;;;;;;3.60;0.90;;;22.90;99.80;;;;;;5138028;27;20038;-67
2022/08/08 09:08:06;;;;;;;3.92;0.80;;;22.90;99.90;;;;;;5138171;27;20182;-72
2022/08/08 09:10:36;;;;;;;5.07;0.65;;;22.70;99.70;;;;;;5137690;27;20042;-68
2022/08/08 09:13:01;;;;;;;4.43;0.80;;;22.60;99.70;;;;;;5137311;27;20035;-69
2022/08/08 09:15:27;;;;;;;1.23;0.55;;;22.40;99.50;;;;;;5137882;27;20052;-69
2022/08/08 09:17:53;;;;;;;4.13;0.60;;;22.30;99.70;;;;;;5137841;27;20031;-69
2022/08/08 09:20:20;;;;;;;3.42;0.90;;;22.30;99.70;;;;;;5137946;27;20078;-69
2022/08/08 09:22:46;;;;;;;5.65;0.90;;;22.50;99.70;;;;;;5136804;27;20042;-69
2022/08/08 09:25:13;;;;;;;2.30;0.68;;;22.30;99.80;;;;;;5137649;27;20035;-67
2022/08/08 09:27:39;;;;;;;3.88;0.98;;;22.30;99.80;;;;;;5119251;27;20048;-70
2022/08/08 09:30:09;;;;;;;2.65;0.70;;;22.40;99.90;;;;;;5137596;27;20031;-66
2022/08/08 09:32:43;;;;;;;4.70;0.88;;;22.50;99.90;;;;;;5137685;27;20495;-66
2022/08/08 09:35:12;;;;;;;3.63;0.63;;;22.50;99.90;;;;;;5137677;27;20077;-66
2022/08/08 09:37:50;;;;;;;15.63;1.23;;;22.60;99.90;;;;;;5137511;27;20042;-68
2022/08/08 09:40:18;;;;;;;3.88;0.95;;;22.40;99.90;;;;;;5137153;27;20043;-67
2022/08/08 09:42:48;;;;;;;7.75;1.00;;;22.50;99.90;;;;;;5137360;27;20059;-67
2022/08/08 09:46:00;;;;;;;3.08;0.80;;;22.60;99.90;;;;;;5171152;27;20046;-67
2022/08/08 09:48:30;;;;;;;8.25;1.20;;;22.50;99.90;;;;;;5091177;28;20429;-73
2022/08/08 09:50:57;;;;;;;3.08;0.80;;;22.30;99.90;;;;;;5057559;28;20048;-73
2022/08/08 09:53:31;;;;;;;5.82;1.02;;;22.00;99.90;;;;;;5099973;28;20467;-72
2022/08/08 09:55:59;;;;;;;5.22;1.23;;;22.20;99.90;;;;;;5137442;27;20369;-72
2022/08/08 09:58:33;;;;;;;2.95;0.80;;;22.30;99.90;;;;;;5137530;27;20053;-72
2022/08/08 10:01:02;;;;;;;6.88;1.20;;;22.30;99.90;;;;;;5136256;27;20042;-73
2022/08/08 10:03:30;;;;;;;3.67;0.90;;;22.30;99.90;;;;;;5118912;28;20446;-73
2022/08/08 10:05:55;;;;;;;3.63;0.95;;;22.20;99.90;;;;;;5137090;27;20035;-73
2022/08/08 10:08:21;;;;;;;4.35;1.10;;;22.20;99.90;;;;;;5136937;28;20323;-73
2022/08/08 10:10:47;;;;;;;2.90;1.20;;;22.20;99.90;;;;;;5137035;27;20046;-73
2022/08/08 10:13:24;;;;;;;2.28;0.57;;;21.80;99.90;;;;;;5136375;27;20035;-73
2022/08/08 10:15:55;;;;;;;6.30;1.10;;;22.00;99.90;;;;;;5136072;27;20439;-73
2022/08/08 10:18:25;;;;;;;4.53;0.82;;;22.10;99.90;;;;;;5136463;27;20100;-73
2022/08/08 10:20:53;;;;;;;5.40;0.85;;;22.30;99.90;;;;;;5137381;27;20050;-77
2022/08/08 10:23:36;;;;;;;2.05;0.70;;;22.50;99.90;;;;;;5137046;27;20035;-73
2022/08/08 10:26:03;;;;;;;5.28;0.77;;;22.60;99.90;;;;;;5139733;27;20366;-73
2022/08/08 10:28:30;;;;;;;2.47;0.68;;;22.60;99.90;;;;;;5140889;27;20100;-73
2022/08/08 10:30:58;;;;;;;2.33;0.88;;;22.60;99.90;;;;;;5139797;27;20071;-72
2022/08/08 10:33:31;;;;;;;3.83;0.88;;;22.60;99.90;;;;;;5140842;27;20110;-72
2022/08/08 10:36:03;;;;;;;3.80;0.80;;;22.80;99.90;;;;;;5140672;27;20031;-72
2022/08/08 10:38:30;;;;;;;3.10;0.75;;;22.80;99.80;;;;;;5139802;27;20043;-72
2022/08/08 10:41:02;;;;;;;3.17;0.80;;;22.80;99.70;;;;;;5140562;27;20090;-74
2022/08/08 10:43:40;;;;;;;3.85;0.75;;;22.40;99.30;;;;;;5139612;27;20075;-74
2022/08/08 10:46:27;;;;;;;5.07;0.90;;;22.30;99.50;;;;;;5139810;27;20039;-74
2022/08/08 10:48:53;;;;;;;;;;;22.20;99.60;;;;;;5139568;27;20047;-74
2022/08/08 10:51:19;;;;;;;;;;;22.40;99.80;;;;;;5141217;27;19915;-74
2022/08/08 10:53:49;;;;;;;2.83;0.85;;;22.40;99.80;;;;;;5140815;27;19962;-74
2022/08/08 10:56:16;;;;;;;3.55;0.90;;;22.20;99.90;;;;;;5139286;27;20047;-74
2022/08/08 10:58:42;;;;;;;4.97;0.90;;;22.00;99.90;;;;;;5140705;27;20114;-74
2022/08/08 11:01:09;;;;;;;3.50;0.80;;;22.10;99.90;;;;;;5140406;27;20081;-74
2022/08/08 11:03:43;;;;;;;1.98;0.85;;;22.00;99.90;;;;;;5139229;27;20043;-71
2022/08/08 11:06:10;;;;;;;2.63;0.70;;;21.90;99.90;;;;;;5140156;27;20088;-73
2022/08/08 11:08:36;;;;;;;3.13;0.70;;;22.00;99.90;;;;;;5140449;27;20031;-81
2022/08/08 11:11:04;;;;;;;10.32;1.02;;;22.30;99.90;;;;;;5139712;27;20043;-72
2022/08/08 11:13:59;;;;;;;4.22;0.80;;;22.60;99.90;;;;;;5139326;27;20040;-72
2022/08/08 11:16:28;;;;;;;2.20;0.70;;;22.60;99.90;;;;;;5138200;27;20055;-71
2022/08/08 11:18:56;;;;;;;2.58;0.70;;;22.70;99.90;;;;;;5138916;27;20436;-72
2022/08/08 11:21:23;;;;;;;3.55;0.80;;;22.70;99.90;;;;;;5140208;27;20043;-72
2022/08/08 11:23:49;;;;;;;1.52;0.70;;;22.70;99.90;;;;;;5140050;27;20039;-72
2022/08/08 11:26:16;;;;;;;2.55;0.95;;;22.60;99.90;;;;;;5139733;27;20054;-73
2022/08/08 11:28:44;;;;;;;3.70;0.50;;;22.50;99.90;;;;;;5139990;27;20043;-72
2022/08/08 11:31:14;;;;;;;5.68;1.10;;;22.50;99.90;;;;;;5139992;27;20088;-72
2022/08/08 11:33:45;;;;;;;1.92;0.65;;;22.60;99.90;;;;;;5139738;27;20039;-72
2022/08/08 11:36:13;;;;;;;3.17;0.80;;;22.60;99.90;;;;;;5139355;27;20078;-72
2022/08/08 11:38:49;;;;;;;1.67;0.70;;;22.60;99.90;;;;;;5139693;27;20496;-76
2022/08/08 11:41:16;;;;;;;2.92;0.60;;;22.60;99.90;;;;;;5121378;27;20096;-72
2022/08/08 11:43:44;;;;;;;3.60;0.70;;;22.60;99.90;;;;;;5139531;27;20039;-73
2022/08/08 11:46:11;;;;;;;3.72;0.65;;;22.70;99.90;;;;;;5121194;27;20059;-73
2022/08/08 11:48:37;;;;;;;1.30;0.55;;;22.70;99.90;;;;;;5138707;27;20402;-72
2022/08/08 11:51:04;;;;;;;2.65;0.80;;;22.70;99.90;;;;;;5138441;27;20475;-73
2022/08/08 11:53:31;;;;;;;1.98;0.65;;;22.60;99.90;;;;;;5138290;27;20079;-73
2022/08/08 11:55:56;;;;;;;3.08;0.98;;;22.60;99.90;;;;;;5138424;27;20106;-73
2022/08/08 11:58:32;;;;;;;7.18;1.10;;;22.60;99.90;;;;;;5121429;27;20479;-73
2022/08/08 12:00:58;;;;;;;5.72;1.10;;;22.60;99.90;;;;;;5121132;27;20047;-73
2022/08/08 12:03:32;;;;;;;3.67;0.90;;;22.60;99.90;;;;;;5138277;27;20043;-73
2022/08/08 12:05:59;;;;;;;5.50;1.02;;;22.60;99.90;;;;;;5139320;27;20039;-73
2022/08/08 12:08:32;;;;;;;4.90;0.90;;;22.70;99.90;;;;;;5137954;27;20054;-75
2022/08/08 12:11:00;;;;;;;5.97;0.82;;;22.60;99.90;;;;;;5137797;27;20035;-73
2022/08/08 12:13:27;;;;;;;2.45;0.80;;;22.60;99.90;;;;;;5120778;27;20049;-73
2022/08/08 12:15:54;;;;;;;2.97;0.80;;;22.70;99.90;;;;;;5139203;27;20072;-73
2022/08/08 12:18:25;;;;;;;3.35;0.95;;;22.50;99.90;;;;;;5137945;27;20050;-73
2022/08/08 12:20:55;;;;;;;4.72;0.90;;;22.70;99.90;;;;;;5137753;27;20121;-73
2022/08/08 12:23:32;;;;;;;4.43;0.90;;;22.70;99.90;;;;;;5137633;27;20043;-74
2022/08/08 12:26:12;;;;;;;5.82;0.77;;;22.70;99.90;;;;;;5120338;27;20039;-73
2022/08/08 12:28:38;;;;;;;3.35;1.00;;;22.60;99.90;;;;;;5137790;27;20043;-73
2022/08/08 12:31:05;;;;;;;2.03;0.80;;;22.70;99.90;;;;;;5137779;27;20041;-73
2022/08/08 12:33:32;;;;;;;4.47;0.70;;;22.80;99.90;;;;;;5120822;27;20312;-73
2022/08/08 12:36:09;;;;;;;2.58;0.50;;;22.70;99.90;;;;;;5138604;27;20049;-73
2022/08/08 12:38:48;;;;;;;1.75;0.73;;;22.80;99.80;;;;;;5137888;27;20357;-73
2022/08/08 12:41:13;;;;;;;2.35;0.70;;;22.50;99.90;;;;;;5120541;27;20047;-73
2022/08/08 12:43:39;;;;;;;1.70;0.73;;;22.70;99.90;;;;;;5120134;27;20031;-73
2022/08/08 12:46:13;;;;;;;2.20;0.63;;;22.70;99.90;;;;;;5138185;27;20039;-73
2022/08/08 12:48:41;;;;;;;3.42;1.08;;;22.80;99.90;;;;;;5137534;27;20062;-73
2022/08/08 12:51:18;;;;;;;24.10;1.50;;;22.80;99.90;;;;;;5120038;27;20100;-71
2022/08/08 12:53:56;;;;;;;11.40;1.20;;;22.80;99.90;;;;;;5138211;27;20035;-72
2022/08/08 12:56:36;;;;;;;3.58;1.00;;;22.90;99.90;;;;;;5137196;27;20050;-73
2022/08/08 12:59:28;;;;;;;3.00;0.80;;;23.00;99.90;;;;;;5137349;27;20035;-73
2022/08/08 13:01:56;;;;;;;26.95;1.95;;;23.20;99.90;;;;;;5137112;27;20039;-73
2022/08/08 13:04:28;;;;;;;2.50;0.73;;;22.90;99.80;;;;;;5120215;27;20324;-77
2022/08/08 13:06:59;;;;;;;2.13;0.60;;;22.90;99.70;;;;;;5119812;27;20035;-79
2022/08/08 13:09:35;;;;;;;2.85;0.82;;;23.10;99.60;;;;;;5136838;27;20039;-80
2022/08/08 13:12:10;;;;;;;3.42;0.70;;;23.20;99.70;;;;;;5136606;27;20035;-78
2022/08/08 13:14:38;;;;;;;3.97;0.75;;;23.30;99.30;;;;;;5136960;27;20096;-78
2022/08/08 13:17:04;;;;;;;2.45;0.60;;;22.90;99.40;;;;;;5136818;27;20079;-78
2022/08/08 13:19:30;;;;;;;5.32;0.75;;;22.80;99.40;;;;;;5137631;27;20046;-78
2022/08/08 13:21:56;;;;;;;2.00;0.70;;;22.90;99.80;;;;;;5136956;27;20097;-78
2022/08/08 13:24:22;;;;;;;1.10;0.68;;;22.60;99.70;;;;;;5119719;27;20442;-76
2022/08/08 13:26:59;;;;;;;2.38;0.85;;;22.70;99.90;;;;;;5119355;27;20316;-77
2022/08/08 13:29:25;;;;;;;3.25;0.60;;;22.90;99.90;;;;;;5121519;27;20114;-77